Time;durP1;ratioP1;P1;durP2;ratioP2;P2;SDS_P1;SDS_P2;PMS_P1;PMS_P2;Temp;Humidity;BMP_temperature;BMP_pressure;BME280_temperature;BME280_humidity;BME280_pressure;Samples;Min_cycle;Max_cycle;Signal;HPM_P1;HPM_P2
2022/06/14 00:00:53;;;;;;;7.03;3.47;;;13.30;99.90;;;;;;4917016;29;20203;-82
2022/06/14 00:02:21;;;;;;;6.57;3.93;;;13.40;99.90;;;;;;4916055;29;20665;-82
2022/06/14 00:04:48;;;;;;;4.93;3.37;;;13.40;99.90;;;;;;4915613;29;20275;-83
2022/06/14 00:07:15;;;;;;;6.63;4.00;;;13.30;99.90;;;;;;4909552;29;20211;-82
2022/06/14 00:09:41;;;;;;;6.93;3.63;;;13.20;99.90;;;;;;4899637;29;20237;-82
2022/06/14 00:12:09;;;;;;;5.67;4.00;;;13.20;99.90;;;;;;4892768;29;20211;-82
2022/06/14 00:14:37;;;;;;;4.43;3.17;;;13.20;99.90;;;;;;4909408;29;20230;-83
2022/06/14 00:17:04;;;;;;;5.20;3.60;;;13.20;99.90;;;;;;4896895;29;20207;-82
2022/06/14 00:19:31;;;;;;;3.73;3.37;;;13.20;99.90;;;;;;4899487;29;20255;-82
2022/06/14 00:22:01;;;;;;;3.90;3.17;;;13.10;99.90;;;;;;4900061;29;20276;-82
2022/06/14 00:24:29;;;;;;;4.10;3.40;;;13.10;99.90;;;;;;4893960;29;20283;-84
2022/06/14 00:26:55;;;;;;;5.37;3.70;;;13.00;99.90;;;;;;4916098;29;20204;-83
2022/06/14 00:29:22;;;;;;;5.50;3.57;;;13.00;99.90;;;;;;4898864;29;20200;-83
2022/06/14 00:31:51;;;;;;;7.20;6.47;;;13.00;99.90;;;;;;4899277;29;20672;-82
2022/06/14 00:34:17;;;;;;;7.83;7.03;;;12.90;99.90;;;;;;4894653;29;20437;-82
2022/06/14 00:36:53;;;;;;;7.97;7.37;;;12.90;99.90;;;;;;4905157;29;20200;-81
2022/06/14 00:39:19;;;;;;;8.50;7.70;;;12.90;99.90;;;;;;4915980;29;20206;-80
2022/06/14 00:41:49;;;;;;;8.30;7.50;;;12.80;99.90;;;;;;4902256;29;20206;-82
2022/06/14 00:44:18;;;;;;;8.20;7.50;;;12.90;99.90;;;;;;4892021;29;20219;-82
2022/06/14 00:46:54;;;;;;;8.20;7.60;;;12.90;99.90;;;;;;4899044;29;20210;-81
2022/06/14 00:49:25;;;;;;;10.37;7.97;;;12.90;99.90;;;;;;4898082;29;20203;-82
2022/06/14 00:51:56;;;;;;;7.73;7.20;;;12.80;99.90;;;;;;4898269;29;20211;-82
2022/06/14 00:54:25;;;;;;;8.07;7.47;;;12.80;99.90;;;;;;4898821;29;20227;-82
2022/06/14 00:56:56;;;;;;;8.10;7.40;;;12.80;99.90;;;;;;4897983;29;20222;-83
2022/06/14 00:59:28;;;;;;;8.67;7.97;;;12.80;99.90;;;;;;4896619;29;20211;-82
2022/06/14 01:02:04;;;;;;;8.07;7.20;;;12.70;99.90;;;;;;4912206;29;20204;-82
2022/06/14 01:04:32;;;;;;;8.17;7.43;;;12.60;99.90;;;;;;4903073;29;20233;-83
2022/06/14 01:07:06;;;;;;;8.70;7.10;;;12.60;99.90;;;;;;4908195;29;20282;-83
2022/06/14 01:09:37;;;;;;;7.80;7.20;;;12.50;99.90;;;;;;4896972;29;20210;-82
2022/06/14 01:12:08;;;;;;;8.07;7.30;;;12.50;99.90;;;;;;4897279;29;20297;-80
2022/06/14 01:14:42;;;;;;;7.70;7.10;;;12.40;99.90;;;;;;4915682;29;20217;-82
2022/06/14 01:17:13;;;;;;;7.50;6.90;;;12.40;99.90;;;;;;4922705;29;20203;-83
2022/06/14 01:19:41;;;;;;;8.17;7.43;;;12.40;99.90;;;;;;4895287;29;20222;-81
2022/06/14 01:22:40;;;;;;;8.23;7.43;;;12.40;99.90;;;;;;4898552;29;20278;-82
2022/06/14 01:25:08;;;;;;;8.50;7.70;;;12.40;99.90;;;;;;4836202;29;20278;-83
2022/06/14 01:27:37;;;;;;;8.10;7.50;;;12.40;99.90;;;;;;4874046;29;20213;-82
2022/06/14 01:30:13;;;;;;;8.47;7.63;;;12.30;99.90;;;;;;4913790;29;20266;-82
2022/06/14 01:32:46;;;;;;;8.47;7.67;;;12.20;99.90;;;;;;4898799;29;20635;-82
2022/06/14 01:35:17;;;;;;;7.83;7.23;;;12.20;99.90;;;;;;4903061;29;20223;-82
2022/06/14 01:37:49;;;;;;;10.77;7.80;;;12.10;99.90;;;;;;4912207;29;20210;-83
2022/06/14 01:40:16;;;;;;;8.97;8.07;;;12.10;99.90;;;;;;4899354;29;20249;-82
2022/06/14 01:42:57;;;;;;;8.57;7.73;;;12.10;99.90;;;;;;4911477;29;20262;-83
2022/06/14 01:45:32;;;;;;;8.10;7.37;;;12.10;99.90;;;;;;4905812;29;20226;-82
2022/06/14 01:48:08;;;;;;;8.90;8.00;;;12.00;99.90;;;;;;4899630;29;20216;-80
2022/06/14 01:53:44;;;;;;;9.17;8.10;;;12.00;99.90;;;;;;4891278;29;20199;-81
2022/06/14 01:56:14;;;;;;;9.07;8.27;;;12.00;99.90;;;;;;4888671;29;20229;-80
2022/06/14 01:58:50;;;;;;;8.47;7.70;;;11.90;99.90;;;;;;4898463;29;20221;-81
2022/06/14 02:01:27;;;;;;;8.77;8.00;;;11.80;99.90;;;;;;4907305;29;20651;-82
2022/06/14 02:06:55;;;;;;;8.43;7.63;;;11.70;99.90;;;;;;4890644;29;20689;-80
2022/06/14 02:09:30;;;;;;;9.37;8.33;;;11.60;99.90;;;;;;4901532;29;20209;-81
2022/06/14 02:11:59;;;;;;;8.63;7.73;;;11.50;99.90;;;;;;4903344;29;20204;-81
2022/06/14 02:14:31;;;;;;;8.73;7.93;;;11.50;99.90;;;;;;4895666;29;20231;-81
2022/06/14 02:17:02;;;;;;;9.07;8.23;;;11.50;99.90;;;;;;4900021;29;20282;-82
2022/06/14 02:19:34;;;;;;;9.40;8.50;;;11.50;99.90;;;;;;4917183;29;20198;-81
2022/06/14 02:22:09;;;;;;;9.80;8.10;;;11.60;99.90;;;;;;4901314;29;20196;-81
2022/06/14 02:24:42;;;;;;;8.47;7.70;;;11.70;99.90;;;;;;4918040;29;20220;-81
2022/06/14 02:27:15;;;;;;;8.53;7.73;;;11.70;99.90;;;;;;4898294;29;20579;-81
2022/06/14 02:29:46;;;;;;;8.90;8.20;;;11.70;99.90;;;;;;4893916;29;20213;-81
2022/06/14 02:32:17;;;;;;;9.50;8.80;;;11.70;99.90;;;;;;4915799;29;20198;-82
2022/06/14 02:34:49;;;;;;;9.47;8.60;;;11.60;99.90;;;;;;4904143;29;20236;-81
2022/06/14 02:37:21;;;;;;;8.47;7.67;;;11.70;99.90;;;;;;4894344;29;20264;-81
2022/06/14 02:39:55;;;;;;;9.40;8.50;;;11.50;99.90;;;;;;4916539;29;20214;-82
2022/06/14 02:42:28;;;;;;;8.80;8.10;;;11.50;99.90;;;;;;4902951;29;20685;-80
2022/06/14 02:45:00;;;;;;;8.90;8.00;;;11.50;99.90;;;;;;4901030;29;20220;-82
2022/06/14 02:47:31;;;;;;;9.53;8.77;;;11.40;99.90;;;;;;4917712;29;20577;-83
2022/06/14 02:50:04;;;;;;;9.40;8.70;;;11.40;99.90;;;;;;4899300;29;20208;-82
2022/06/14 02:52:34;;;;;;;8.90;8.20;;;11.40;99.90;;;;;;4897222;29;20227;-80
2022/06/14 02:55:07;;;;;;;9.57;8.73;;;11.30;99.90;;;;;;4919180;29;20229;-80
2022/06/14 02:57:38;;;;;;;8.90;8.20;;;11.20;99.90;;;;;;4913148;29;20237;-78
2022/06/14 03:00:10;;;;;;;9.13;8.53;;;11.20;99.90;;;;;;4903181;29;20214;-79
2022/06/14 03:02:41;;;;;;;9.40;8.70;;;11.10;99.90;;;;;;4903657;29;20212;-78
2022/06/14 03:05:13;;;;;;;9.43;8.60;;;11.10;99.90;;;;;;4903937;29;20240;-79
2022/06/14 03:07:47;;;;;;;9.57;8.77;;;11.00;99.90;;;;;;4910070;29;20257;-79
2022/06/14 03:10:15;;;;;;;9.93;9.13;;;11.00;99.90;;;;;;4904027;29;20229;-80
2022/06/14 03:12:46;;;;;;;10.10;9.10;;;11.00;99.90;;;;;;4914948;29;20209;-80
2022/06/14 03:15:19;;;;;;;9.60;8.80;;;11.00;99.90;;;;;;4911662;29;20273;-79
2022/06/14 03:18:01;;;;;;;10.07;9.20;;;11.00;99.90;;;;;;4904580;29;20221;-79
2022/06/14 03:20:42;;;;;;;9.53;8.70;;;11.00;99.90;;;;;;4903912;29;20216;-80
2022/06/14 03:23:19;;;;;;;9.77;9.00;;;11.00;99.90;;;;;;4923865;29;20216;-79
2022/06/14 03:25:53;;;;;;;10.47;9.57;;;10.90;99.90;;;;;;4908984;29;20651;-79
2022/06/14 03:28:25;;;;;;;9.77;8.97;;;10.90;99.90;;;;;;4900870;29;20191;-79
2022/06/14 03:31:02;;;;;;;9.43;8.73;;;10.90;99.90;;;;;;4906964;29;20211;-80
2022/06/14 03:33:37;;;;;;;9.30;8.67;;;11.00;99.90;;;;;;4913190;29;20210;-79
2022/06/14 03:36:06;;;;;;;9.20;8.40;;;11.00;99.90;;;;;;4907955;29;20251;-79
2022/06/14 03:38:36;;;;;;;9.67;8.90;;;11.00;99.90;;;;;;4909008;29;20626;-80
2022/06/14 03:41:05;;;;;;;10.73;9.63;;;10.90;99.90;;;;;;4913846;29;20708;-80
2022/06/14 03:43:35;;;;;;;10.07;9.17;;;10.90;99.90;;;;;;4917318;29;20205;-79
2022/06/14 03:46:09;;;;;;;9.77;9.00;;;11.00;99.90;;;;;;4906054;29;20667;-80
2022/06/14 03:48:39;;;;;;;9.73;8.90;;;11.00;99.90;;;;;;4924925;29;20583;-80
2022/06/14 03:51:11;;;;;;;10.17;9.27;;;11.00;99.90;;;;;;4908515;29;20208;-78
2022/06/14 03:53:47;;;;;;;9.63;8.93;;;11.10;99.90;;;;;;4927268;29;20208;-78
2022/06/14 03:56:27;;;;;;;9.60;8.80;;;11.10;99.90;;;;;;4915236;29;20230;-78
2022/06/14 03:59:06;;;;;;;9.63;8.83;;;11.10;99.90;;;;;;4925646;29;20230;-79
2022/06/14 04:01:42;;;;;;;9.97;9.17;;;11.10;99.90;;;;;;4926490;29;20263;-79
2022/06/14 04:04:23;;;;;;;9.77;8.97;;;11.20;99.90;;;;;;4927367;29;20228;-79
2022/06/14 04:06:58;;;;;;;9.50;8.70;;;11.30;99.90;;;;;;4909821;29;20197;-79
2022/06/14 04:09:39;;;;;;;9.23;8.53;;;11.30;99.90;;;;;;4906171;29;20231;-79
2022/06/14 04:12:18;;;;;;;9.83;9.07;;;11.30;99.90;;;;;;4918116;29;20223;-79
2022/06/14 04:14:57;;;;;;;9.67;8.93;;;11.40;99.90;;;;;;4905929;29;20231;-78
2022/06/14 04:17:31;;;;;;;9.67;8.97;;;11.50;99.90;;;;;;4923827;29;20200;-79
2022/06/14 04:20:06;;;;;;;9.53;8.70;;;11.50;99.90;;;;;;4909868;29;20339;-79
2022/06/14 04:22:43;;;;;;;9.47;8.77;;;11.60;99.90;;;;;;4909665;29;20697;-79
2022/06/14 04:25:17;;;;;;;9.07;8.37;;;11.70;99.90;;;;;;4908003;29;20218;-80
2022/06/14 04:27:53;;;;;;;9.73;8.83;;;11.80;99.90;;;;;;4927527;29;20209;-80
2022/06/14 04:30:26;;;;;;;9.60;8.83;;;11.90;99.90;;;;;;4921850;29;20204;-79
2022/06/14 04:32:58;;;;;;;6.57;6.03;;;12.00;99.90;;;;;;4926784;29;20202;-80
2022/06/14 04:35:32;;;;;;;4.60;4.20;;;12.20;99.90;;;;;;4904043;29;20278;-79
2022/06/14 04:38:02;;;;;;;4.40;3.80;;;12.50;99.90;;;;;;4924874;29;20234;-79
2022/06/14 04:40:36;;;;;;;8.07;7.50;;;12.70;99.90;;;;;;4923660;29;20199;-79
2022/06/14 04:43:08;;;;;;;5.57;4.50;;;12.90;99.90;;;;;;4908511;29;20200;-79
2022/06/14 04:45:41;;;;;;;4.97;4.50;;;13.10;99.90;;;;;;4928260;29;20235;-78
2022/06/14 04:48:13;;;;;;;5.60;5.10;;;13.30;99.90;;;;;;4907883;29;20211;-80
2022/06/14 04:50:44;;;;;;;4.93;4.10;;;13.60;99.90;;;;;;4927098;29;20210;-80
2022/06/14 04:53:15;;;;;;;5.10;4.60;;;13.90;99.90;;;;;;4919820;29;20211;-80
2022/06/14 04:55:47;;;;;;;8.73;4.47;;;14.10;99.90;;;;;;4926015;29;20227;-79
2022/06/14 04:58:21;;;;;;;5.80;4.03;;;14.40;99.90;;;;;;4919974;29;20217;-81
2022/06/14 05:00:52;;;;;;;4.77;4.30;;;14.50;99.90;;;;;;4907398;29;20214;-80
2022/06/14 05:03:23;;;;;;;5.63;4.33;;;14.60;99.90;;;;;;4908315;29;20212;-80
2022/06/14 05:05:54;;;;;;;5.60;4.50;;;14.60;99.90;;;;;;4925726;29;20228;-80
2022/06/14 05:08:25;;;;;;;4.83;4.40;;;14.80;99.90;;;;;;4907280;29;20204;-80
2022/06/14 05:10:57;;;;;;;5.10;4.60;;;15.00;99.90;;;;;;4922774;29;20272;-80
2022/06/14 05:13:28;;;;;;;5.57;4.93;;;15.00;99.90;;;;;;4902148;29;20210;-80
2022/06/14 05:15:59;;;;;;;5.73;5.23;;;15.10;99.90;;;;;;4925602;29;20226;-80
2022/06/14 05:18:32;;;;;;;8.63;8.03;;;15.30;99.90;;;;;;4922022;29;20201;-80
2022/06/14 05:21:06;;;;;;;7.80;7.20;;;15.50;99.90;;;;;;4908119;29;20226;-80
2022/06/14 05:23:39;;;;;;;5.40;3.67;;;15.60;99.90;;;;;;4922686;29;20211;-80
2022/06/14 05:26:18;;;;;;;4.97;4.00;;;15.50;99.90;;;;;;4906149;29;20209;-80
2022/06/14 05:28:56;;;;;;;4.97;3.87;;;15.40;99.90;;;;;;4921852;29;20209;-80
2022/06/14 05:31:30;;;;;;;4.20;3.53;;;15.40;99.90;;;;;;4926850;29;20207;-80
2022/06/14 05:34:03;;;;;;;4.40;3.63;;;15.40;99.90;;;;;;4925526;29;20238;-80
2022/06/14 05:36:36;;;;;;;5.00;4.60;;;15.60;99.90;;;;;;4925560;29;20721;-80
2022/06/14 05:39:08;;;;;;;5.30;4.77;;;15.90;99.90;;;;;;4909478;29;20211;-79
2022/06/14 05:41:41;;;;;;;4.27;3.87;;;16.60;99.90;;;;;;4915082;29;20204;-81
2022/06/14 05:44:13;;;;;;;8.10;6.60;;;17.30;99.90;;;;;;4909990;29;20500;-80
2022/06/14 05:46:46;;;;;;;7.33;5.13;;;18.20;99.90;;;;;;4912193;29;20202;-78
2022/06/14 05:49:18;;;;;;;5.60;5.10;;;18.90;99.90;;;;;;4917752;29;20203;-80
2022/06/14 05:51:49;;;;;;;7.83;7.23;;;19.50;99.90;;;;;;4930622;29;20693;-80
2022/06/14 05:54:23;;;;;;;7.73;7.13;;;20.10;99.90;;;;;;4928326;29;20680;-80
2022/06/14 05:56:55;;;;;;;6.93;6.30;;;20.40;99.90;;;;;;4926897;29;20626;-81
2022/06/14 05:59:31;;;;;;;6.83;6.23;;;20.80;99.90;;;;;;4926927;29;20196;-81
2022/06/14 06:02:04;;;;;;;7.97;7.27;;;20.90;99.90;;;;;;4908360;29;20210;-80
2022/06/14 06:04:37;;;;;;;7.90;7.20;;;21.20;99.90;;;;;;4915219;29;20224;-80
2022/06/14 06:07:08;;;;;;;6.00;4.80;;;21.50;99.90;;;;;;4903447;29;20196;-81
2022/06/14 06:09:41;;;;;;;5.77;4.40;;;21.80;99.90;;;;;;4916262;29;20204;-81
2022/06/14 06:12:16;;;;;;;5.63;3.57;;;22.00;99.90;;;;;;4927684;29;20203;-81
2022/06/14 06:14:50;;;;;;;4.33;3.60;;;22.00;99.90;;;;;;4910268;29;20322;-81
2022/06/14 06:17:21;;;;;;;5.67;5.07;;;22.00;99.90;;;;;;4920133;29;20226;-81
2022/06/14 06:19:58;;;;;;;6.47;4.23;;;22.20;99.90;;;;;;4909990;29;20218;-80
2022/06/14 06:22:29;;;;;;;6.60;5.90;;;22.20;99.90;;;;;;4927068;29;20875;-80
2022/06/14 06:24:59;;;;;;;5.90;5.03;;;22.50;99.90;;;;;;4921849;29;20275;-81
2022/06/14 06:27:29;;;;;;;6.73;5.70;;;22.70;99.90;;;;;;4908718;29;20218;-80
2022/06/14 06:30:02;;;;;;;7.20;5.73;;;22.90;99.90;;;;;;4897286;29;20207;-80
2022/06/14 06:32:31;;;;;;;5.43;3.70;;;23.20;99.90;;;;;;4925617;29;20538;-80
2022/06/14 06:34:59;;;;;;;8.37;5.90;;;23.40;99.90;;;;;;4906572;29;20247;-81
2022/06/14 06:37:35;;;;;;;6.50;5.57;;;23.40;99.90;;;;;;4920715;29;20283;-79
2022/06/14 06:40:07;;;;;;;6.60;6.00;;;23.30;99.90;;;;;;4917879;29;20192;-81
2022/06/14 06:42:40;;;;;;;6.90;6.30;;;23.30;99.90;;;;;;4909253;29;20211;-80
2022/06/14 06:45:14;;;;;;;6.53;5.93;;;23.30;99.90;;;;;;4909264;29;20216;-82
2022/06/14 06:47:45;;;;;;;5.03;3.30;;;23.70;99.90;;;;;;4929652;29;20211;-81
2022/06/14 06:50:21;;;;;;;6.53;3.67;;;23.60;99.90;;;;;;4916497;29;20614;-81
2022/06/14 06:53:02;;;;;;;6.10;3.90;;;23.60;99.90;;;;;;4909808;29;20207;-81
2022/06/14 06:55:43;;;;;;;5.33;3.40;;;23.50;99.90;;;;;;4926599;29;20227;-81
2022/06/14 06:58:16;;;;;;;8.77;3.87;;;23.70;99.90;;;;;;4904867;29;20638;-82
2022/06/14 07:00:47;;;;;;;3.90;3.30;;;23.80;99.90;;;;;;4928879;29;20196;-82
2022/06/14 07:03:21;;;;;;;5.23;3.70;;;23.80;99.90;;;;;;4921422;29;20200;-80
2022/06/14 07:05:51;;;;;;;4.97;3.33;;;23.90;99.90;;;;;;4911282;29;20278;-81
2022/06/14 07:08:23;;;;;;;5.93;3.73;;;23.80;99.90;;;;;;4929321;29;20238;-82
2022/06/14 07:10:53;;;;;;;9.63;3.80;;;23.70;99.90;;;;;;4929988;29;20195;-80
2022/06/14 07:13:27;;;;;;;6.13;3.30;;;23.60;99.90;;;;;;4913088;29;20195;-81
2022/06/14 07:16:05;;;;;;;6.63;3.53;;;23.80;99.90;;;;;;4910695;29;20227;-80
2022/06/14 07:18:40;;;;;;;6.47;3.40;;;24.00;99.90;;;;;;4929128;29;20245;-81
2022/06/14 07:21:14;;;;;;;6.27;4.00;;;24.20;99.90;;;;;;4911934;29;20569;-81
2022/06/14 07:23:45;;;;;;;6.93;3.70;;;24.40;99.90;;;;;;4907903;29;20211;-81
2022/06/14 07:26:22;;;;;;;5.20;3.90;;;24.40;99.90;;;;;;4920678;29;20680;-80
2022/06/14 07:28:56;;;;;;;7.70;4.00;;;24.40;99.90;;;;;;4911237;29;20215;-81
2022/06/14 07:31:32;;;;;;;5.07;3.60;;;24.40;99.90;;;;;;4927853;29;20661;-81
2022/06/14 07:34:01;;;;;;;6.80;3.57;;;24.30;99.90;;;;;;4927894;29;20632;-81
2022/06/14 07:36:39;;;;;;;6.03;3.83;;;24.80;99.90;;;;;;4920639;29;20216;-81
2022/06/14 07:39:13;;;;;;;8.47;4.17;;;24.80;99.90;;;;;;4908618;29;20215;-80
2022/06/14 07:41:48;;;;;;;6.17;3.77;;;24.70;99.90;;;;;;4924950;29;20643;-81
2022/06/14 07:44:22;;;;;;;6.23;3.67;;;24.70;99.90;;;;;;4921532;29;20226;-82
2022/06/14 07:46:58;;;;;;;7.80;3.90;;;24.90;99.90;;;;;;4909200;29;20208;-81
2022/06/14 07:49:33;;;;;;;5.43;3.80;;;25.00;99.90;;;;;;4925454;29;20207;-82
2022/06/14 07:52:07;;;;;;;5.63;3.57;;;24.90;99.90;;;;;;4911874;29;20199;-81
2022/06/14 07:54:40;;;;;;;5.73;4.00;;;24.90;99.90;;;;;;4910538;29;20291;-82
2022/06/14 07:57:11;;;;;;;7.93;3.87;;;24.90;99.90;;;;;;4908648;29;20224;-81
2022/06/14 07:59:42;;;;;;;4.93;3.20;;;24.90;99.90;;;;;;4929125;29;20207;-80
2022/06/14 08:02:18;;;;;;;5.70;3.30;;;25.10;99.90;;;;;;4925358;29;20200;-81
2022/06/14 08:04:50;;;;;;;5.43;4.63;;;25.20;99.90;;;;;;4910556;29;20238;-81
2022/06/14 08:07:19;;;;;;;6.90;4.73;;;25.20;99.90;;;;;;4919664;29;20203;-80
2022/06/14 08:09:52;;;;;;;7.37;4.23;;;25.30;99.90;;;;;;4925565;29;20200;-81
2022/06/14 08:12:23;;;;;;;7.03;4.57;;;25.20;99.90;;;;;;4922852;29;20207;-83
2022/06/14 08:14:55;;;;;;;8.30;4.53;;;25.10;99.90;;;;;;4908113;29;20228;-81
2022/06/14 08:17:28;;;;;;;6.87;4.90;;;25.30;99.90;;;;;;4918513;29;20216;-78
2022/06/14 08:20:01;;;;;;;8.17;5.13;;;25.60;99.90;;;;;;4902883;29;20219;-82
2022/06/14 08:22:33;;;;;;;8.17;5.37;;;25.80;99.90;;;;;;4914678;29;20262;-82
2022/06/14 08:25:03;;;;;;;6.93;5.57;;;25.90;99.90;;;;;;4900143;29;20250;-82
2022/06/14 08:27:34;;;;;;;8.83;5.50;;;26.00;99.80;;;;;;4896774;29;20303;-83
2022/06/14 08:30:06;;;;;;;9.47;5.80;;;26.30;99.90;;;;;;4909139;29;20653;-82
2022/06/14 08:32:40;;;;;;;5.63;4.97;;;26.10;98.90;;;;;;4900256;29;20210;-81
2022/06/14 08:35:12;;;;;;;5.67;3.73;;;26.00;99.10;;;;;;4896514;29;20220;-84
2022/06/14 08:37:43;;;;;;;4.03;3.23;;;25.70;98.90;;;;;;4914974;29;20725;-81
2022/06/14 08:40:25;;;;;;;10.23;4.03;;;25.00;99.90;;;;;;4902563;29;20661;-81
2022/06/14 08:42:57;;;;;;;9.17;5.40;;;25.30;99.90;;;;;;4904951;29;20220;-81
2022/06/14 08:45:33;;;;;;;6.87;5.33;;;25.20;99.70;;;;;;4926310;29;20654;-82
2022/06/14 08:48:19;;;;;;;7.30;5.00;;;25.30;99.90;;;;;;4925971;29;20206;-82
2022/06/14 08:51:12;;;;;;;6.90;4.70;;;25.50;99.90;;;;;;4917925;29;20196;-81
2022/06/14 08:54:09;;;;;;;6.30;4.67;;;25.60;99.90;;;;;;4896579;29;20222;-81
2022/06/14 08:56:57;;;;;;;9.30;5.70;;;26.40;99.90;;;;;;4895439;29;20220;-81
2022/06/14 08:59:59;;;;;;;7.33;5.90;;;26.90;99.90;;;;;;4899264;29;20271;-82
2022/06/14 09:02:44;;;;;;;6.13;5.60;;;26.90;99.90;;;;;;4898814;29;20216;-82
2022/06/14 09:05:37;;;;;;;6.90;5.63;;;27.10;99.90;;;;;;4909259;29;20211;-82
2022/06/14 09:08:58;;;;;;;6.77;5.40;;;27.40;99.00;;;;;;4912062;29;20251;-84
2022/06/14 09:12:10;;;;;;;7.97;6.10;;;27.30;98.20;;;;;;4852761;29;20764;-84
2022/06/14 09:15:16;;;;;;;7.43;6.27;;;27.20;98.80;;;;;;4859901;29;20235;-84
2022/06/14 09:18:10;;;;;;;7.00;6.30;;;26.70;98.00;;;;;;4844618;29;20755;-85
2022/06/14 09:20:51;;;;;;;7.50;6.80;;;26.30;99.10;;;;;;4897813;29;20214;-84
2022/06/14 09:23:32;;;;;;;9.60;7.23;;;26.80;99.10;;;;;;4895761;29;20219;-85
2022/06/14 09:26:22;;;;;;;7.93;7.10;;;27.00;99.90;;;;;;4906910;29;20235;-84
2022/06/14 09:29:31;;;;;;;7.83;5.90;;;26.60;96.80;;;;;;4904133;29;20214;-84
2022/06/14 09:32:30;;;;;;;8.37;6.17;;;26.90;97.80;;;;;;4903665;29;20200;-80
2022/06/14 09:35:16;;;;;;;7.20;5.50;;;27.00;95.80;;;;;;4916577;29;20279;-80
2022/06/14 09:38:11;;;;;;;10.77;6.27;;;26.00;97.40;;;;;;4917467;29;20211;-84
2022/06/14 09:40:55;;;;;;;5.37;3.37;;;26.50;99.10;;;;;;4892723;29;20204;-81
2022/06/14 09:44:10;;;;;;;9.10;5.97;;;27.10;97.00;;;;;;4907403;29;20212;-81
2022/06/14 09:47:09;;;;;;;7.40;6.80;;;27.30;95.70;;;;;;4864416;29;20491;-82
2022/06/14 09:50:16;;;;;;;8.67;7.50;;;27.20;95.90;;;;;;4899432;29;20204;-81
2022/06/14 09:53:26;;;;;;;7.83;7.17;;;27.10;94.80;;;;;;4867323;29;20273;-82
2022/06/14 09:56:19;;;;;;;8.67;6.30;;;27.70;98.30;;;;;;4909822;29;20227;-82
2022/06/14 09:59:18;;;;;;;8.60;7.80;;;27.90;97.20;;;;;;4890731;29;20239;-82
2022/06/14 10:01:50;;;;;;;7.83;7.13;;;27.80;95.60;;;;;;4897558;29;20209;-82
2022/06/14 10:04:45;;;;;;;7.83;7.13;;;27.90;96.30;;;;;;4900530;29;20232;-81
2022/06/14 10:07:46;;;;;;;7.67;6.87;;;27.60;95.00;;;;;;4910866;29;20228;-81
2022/06/14 10:10:33;;;;;;;7.30;6.70;;;27.60;94.90;;;;;;4881324;29;20256;-81
2022/06/14 10:13:36;;;;;;;6.73;4.80;;;28.00;95.30;;;;;;4889140;29;20211;-81
2022/06/14 10:16:14;;;;;;;6.23;3.30;;;28.20;94.90;;;;;;4879670;29;20211;-81
2022/06/14 10:19:11;;;;;;;4.77;3.40;;;28.20;94.00;;;;;;4899696;29;20228;-81
2022/06/14 10:21:44;;;;;;;7.17;3.27;;;28.40;93.30;;;;;;4899239;29;20264;-81
2022/06/14 10:24:20;;;;;;;4.63;3.27;;;28.10;93.90;;;;;;4912764;29;20220;-82
2022/06/14 10:30:07;;;;;;;5.57;3.27;;;28.00;92.00;;;;;;4903729;29;20208;-82
2022/06/14 10:33:10;;;;;;;6.27;3.07;;;27.30;93.70;;;;;;4922126;29;20212;-82
2022/06/14 10:35:49;;;;;;;5.57;3.87;;;27.20;94.60;;;;;;4921091;29;20232;-81
2022/06/14 10:38:57;;;;;;;7.80;5.20;;;27.00;94.10;;;;;;4909523;29;20656;-81
2022/06/14 10:41:34;;;;;;;7.47;6.87;;;26.80;94.20;;;;;;4872320;29;20639;-81
2022/06/14 10:44:13;;;;;;;7.20;3.50;;;26.90;94.90;;;;;;4919155;29;20220;-82
2022/06/14 10:46:44;;;;;;;4.23;3.03;;;26.80;95.00;;;;;;4903041;29;20208;-82
2022/06/14 10:49:36;;;;;;;8.20;7.50;;;26.90;96.20;;;;;;4913555;29;20204;-82
2022/06/14 10:52:25;;;;;;;7.60;6.90;;;26.90;94.70;;;;;;4903607;29;20235;-82
2022/06/14 10:55:02;;;;;;;8.77;7.67;;;26.90;96.00;;;;;;4891946;29;20227;-82
2022/06/14 10:57:48;;;;;;;4.63;3.53;;;26.90;94.50;;;;;;4916290;29;20314;-82
2022/06/14 11:00:25;;;;;;;5.63;3.83;;;26.50;95.50;;;;;;4901501;29;20720;-81
2022/06/14 11:03:19;;;;;;;7.93;7.13;;;26.30;94.90;;;;;;4919118;29;20254;-81
2022/06/14 11:06:06;;;;;;;7.70;7.00;;;26.20;95.30;;;;;;4909164;29;20232;-82
2022/06/14 11:08:48;;;;;;;7.67;6.33;;;26.10;96.40;;;;;;4908562;29;20242;-82
2022/06/14 11:11:34;;;;;;;6.70;5.57;;;26.00;96.70;;;;;;4912844;29;20219;-82
2022/06/14 11:14:09;;;;;;;4.63;3.03;;;26.00;94.80;;;;;;4903128;29;20232;-81
2022/06/14 11:16:51;;;;;;;3.93;3.07;;;26.10;95.70;;;;;;4902638;29;20207;-81
2022/06/14 11:19:39;;;;;;;6.77;6.17;;;26.10;96.20;;;;;;4910924;29;20193;-81
2022/06/14 11:22:15;;;;;;;6.97;6.37;;;25.60;94.90;;;;;;4900693;29;20196;-82
2022/06/14 11:24:49;;;;;;;7.17;6.40;;;25.70;96.50;;;;;;4902589;29;20728;-81
2022/06/14 11:27:24;;;;;;;6.47;5.87;;;25.50;94.90;;;;;;4911673;29;20200;-81
2022/06/14 11:30:05;;;;;;;7.60;5.90;;;25.60;96.90;;;;;;4902564;29;20207;-82
2022/06/14 11:32:40;;;;;;;12.27;6.10;;;25.70;95.40;;;;;;4904368;29;20214;-81
2022/06/14 11:35:15;;;;;;;6.13;5.50;;;25.70;95.30;;;;;;4894336;29;20219;-81
2022/06/14 11:37:59;;;;;;;7.23;5.30;;;25.50;95.30;;;;;;4919088;29;20212;-81
2022/06/14 11:40:28;;;;;;;5.87;5.20;;;25.50;97.10;;;;;;4897331;29;20203;-81
2022/06/14 11:43:12;;;;;;;6.20;5.60;;;25.20;95.90;;;;;;4897808;29;20215;-81
2022/06/14 11:45:46;;;;;;;7.60;5.67;;;25.40;97.40;;;;;;4898007;29;20231;-82
2022/06/14 11:48:24;;;;;;;6.40;5.87;;;25.20;96.70;;;;;;4908466;29;20681;-82
2022/06/14 11:50:59;;;;;;;6.33;5.73;;;25.10;97.00;;;;;;4911883;29;20200;-82
2022/06/14 11:53:55;;;;;;;6.47;5.87;;;25.10;97.20;;;;;;4894511;29;20203;-82
2022/06/14 11:56:28;;;;;;;7.20;6.60;;;25.10;97.40;;;;;;4899665;29;20212;-82
2022/06/14 11:59:11;;;;;;;7.53;6.87;;;25.30;97.60;;;;;;4916598;29;20231;-81
2022/06/14 12:01:49;;;;;;;8.03;7.20;;;25.20;97.40;;;;;;4902278;29;20203;-81
2022/06/14 12:04:33;;;;;;;7.70;7.00;;;25.20;96.50;;;;;;4900539;29;20240;-81
2022/06/14 12:07:09;;;;;;;9.57;7.50;;;25.00;97.00;;;;;;4915121;29;20553;-81
2022/06/14 12:10:13;;;;;;;4.07;3.20;;;25.10;97.30;;;;;;4914239;29;20202;-81
2022/06/14 12:12:50;;;;;;;6.57;3.20;;;25.10;97.50;;;;;;4907781;29;21018;-81
2022/06/14 12:15:29;;;;;;;6.50;5.70;;;24.90;96.60;;;;;;4909794;29;20226;-81
2022/06/14 12:18:00;;;;;;;6.50;5.93;;;24.80;97.20;;;;;;4898832;29;20612;-81
2022/06/14 12:20:30;;;;;;;6.40;5.80;;;24.90;97.30;;;;;;4915736;29;20195;-82
2022/06/14 12:23:03;;;;;;;7.63;6.93;;;25.00;97.20;;;;;;4916200;29;20200;-81
2022/06/14 12:28:30;;;;;;;5.17;3.50;;;25.00;96.50;;;;;;4889571;29;20291;-81
2022/06/14 12:31:05;;;;;;;5.70;3.33;;;24.70;96.30;;;;;;4915583;29;20202;-81
2022/06/14 12:33:39;;;;;;;7.17;6.57;;;24.70;96.50;;;;;;4910880;29;20256;-81
2022/06/14 12:36:18;;;;;;;7.90;7.10;;;24.70;97.00;;;;;;4900061;29;20200;-80
2022/06/14 12:38:47;;;;;;;7.07;6.50;;;24.60;96.70;;;;;;4913744;29;20223;-79
2022/06/14 12:41:20;;;;;;;7.33;6.63;;;24.60;96.50;;;;;;4897003;29;20219;-80
2022/06/14 12:43:58;;;;;;;8.37;6.37;;;24.70;97.00;;;;;;4911777;29;20219;-80
2022/06/14 12:46:28;;;;;;;7.43;6.60;;;24.70;96.60;;;;;;4899191;29;20579;-81
2022/06/14 12:49:00;;;;;;;7.70;7.00;;;24.70;96.80;;;;;;4915921;29;20203;-80
2022/06/14 12:51:31;;;;;;;7.30;6.67;;;24.60;97.20;;;;;;4895474;29;20242;-80
2022/06/14 12:54:04;;;;;;;9.97;6.50;;;24.70;97.30;;;;;;4914270;29;20223;-80
2022/06/14 12:56:38;;;;;;;7.83;7.13;;;24.60;97.60;;;;;;4898884;29;20220;-80
2022/06/14 12:59:12;;;;;;;7.13;6.53;;;24.70;97.70;;;;;;4910547;29;20224;-80
2022/06/14 13:01:46;;;;;;;9.60;6.77;;;24.70;97.70;;;;;;4912140;29;20206;-80
2022/06/14 13:04:17;;;;;;;7.33;6.63;;;24.60;97.50;;;;;;4891618;29;20223;-80
2022/06/14 13:07:21;;;;;;;10.27;6.70;;;24.70;97.90;;;;;;4899216;29;20211;-80
2022/06/14 13:10:00;;;;;;;7.30;6.60;;;24.60;97.40;;;;;;4875458;29;20211;-80
2022/06/14 13:12:36;;;;;;;7.23;6.53;;;24.60;97.70;;;;;;4897716;29;20204;-80
2022/06/14 13:15:09;;;;;;;7.17;6.47;;;24.70;97.50;;;;;;4913098;29;20211;-80
2022/06/14 13:18:00;;;;;;;7.47;6.53;;;24.80;97.30;;;;;;4899237;29;20263;-81
2022/06/14 13:20:35;;;;;;;10.10;5.97;;;24.80;97.10;;;;;;4905294;29;20208;-81
2022/06/14 13:23:31;;;;;;;7.00;6.40;;;24.60;97.30;;;;;;4915214;29;20203;-80
2022/06/14 13:26:39;;;;;;;7.87;7.00;;;24.60;96.60;;;;;;4894815;29;20223;-81
2022/06/14 13:29:29;;;;;;;9.00;8.00;;;24.60;97.10;;;;;;4895687;29;20195;-79
2022/06/14 13:32:34;;;;;;;6.20;3.10;;;24.70;96.60;;;;;;4906050;29;20200;-79
2022/06/14 13:35:19;;;;;;;3.53;3.23;;;24.80;98.20;;;;;;4905800;29;20318;-80
2022/06/14 13:37:50;;;;;;;5.00;3.23;;;24.70;97.20;;;;;;4897388;29;20488;-79
2022/06/14 13:40:26;;;;;;;5.63;3.50;;;24.70;96.90;;;;;;4915346;29;20207;-80
2022/06/14 13:42:59;;;;;;;6.80;3.80;;;24.90;97.90;;;;;;4896517;29;20208;-79
2022/06/14 13:45:39;;;;;;;5.00;3.30;;;25.00;97.40;;;;;;4915516;29;20224;-83